sensor_id;sensor_type;location;lat;lon;timestamp;P1;durP1;ratioP1;P2;durP2;ratioP2
66702;SDS011;60933;46.398;-63.798;2022-11-04T00:01:58;2.10;;;0.40;;
66702;SDS011;60933;46.398;-63.798;2022-11-04T00:04:26;2.60;;;0.55;;
66702;SDS011;60933;46.398;-63.798;2022-11-04T00:06:54;3.03;;;0.70;;
66702;SDS011;60933;46.398;-63.798;2022-11-04T00:09:30;1.60;;;0.30;;
66702;SDS011;60933;46.398;-63.798;2022-11-04T00:11:57;3.55;;;0.47;;
66702;SDS011;60933;46.398;-63.798;2022-11-04T00:14:41;3.13;;;0.55;;
66702;SDS011;60933;46.398;-63.798;2022-11-04T00:17:10;3.40;;;1.38;;
66702;SDS011;60933;46.398;-63.798;2022-11-04T00:19:44;2.60;;;0.50;;
66702;SDS011;60933;46.398;-63.798;2022-11-04T00:22:29;5.90;;;0.68;;
66702;SDS011;60933;46.398;-63.798;2022-11-04T00:25:14;1.50;;;0.30;;
66702;SDS011;60933;46.398;-63.798;2022-11-04T00:28:03;3.22;;;1.02;;
66702;SDS011;60933;46.398;-63.798;2022-11-04T00:30:55;2.60;;;0.43;;
66702;SDS011;60933;46.398;-63.798;2022-11-04T00:33:43;3.90;;;0.43;;
66702;SDS011;60933;46.398;-63.798;2022-11-04T00:36:12;2.63;;;0.73;;
66702;SDS011;60933;46.398;-63.798;2022-11-04T00:38:39;4.35;;;0.80;;
66702;SDS011;60933;46.398;-63.798;2022-11-04T00:41:05;0.88;;;0.43;;
66702;SDS011;60933;46.398;-63.798;2022-11-04T00:46:23;4.78;;;0.60;;
66702;SDS011;60933;46.398;-63.798;2022-11-04T00:48:51;2.95;;;0.55;;
66702;SDS011;60933;46.398;-63.798;2022-11-04T00:51:17;3.38;;;0.57;;
66702;SDS011;60933;46.398;-63.798;2022-11-04T00:53:45;1.88;;;0.50;;
66702;SDS011;60933;46.398;-63.798;2022-11-04T00:56:12;1.25;;;0.47;;
66702;SDS011;60933;46.398;-63.798;2022-11-04T00:58:39;2.38;;;0.43;;
66702;SDS011;60933;46.398;-63.798;2022-11-04T01:01:09;2.65;;;0.70;;
66702;SDS011;60933;46.398;-63.798;2022-11-04T01:03:43;2.30;;;0.32;;
66702;SDS011;60933;46.398;-63.798;2022-11-04T01:06:10;1.98;;;0.63;;
66702;SDS011;60933;46.398;-63.798;2022-11-04T01:08:36;3.28;;;0.95;;
66702;SDS011;60933;46.398;-63.798;2022-11-04T01:11:03;1.75;;;0.63;;
66702;SDS011;60933;46.398;-63.798;2022-11-04T01:13:31;1.63;;;0.30;;
66702;SDS011;60933;46.398;-63.798;2022-11-04T01:15:58;2.25;;;0.80;;
66702;SDS011;60933;46.398;-63.798;2022-11-04T01:18:25;2.30;;;0.52;;
66702;SDS011;60933;46.398;-63.798;2022-11-04T01:20:51;2.88;;;0.70;;
66702;SDS011;60933;46.398;-63.798;2022-11-04T01:23:17;2.05;;;0.55;;
66702;SDS011;60933;46.398;-63.798;2022-11-04T01:25:44;2.90;;;0.75;;
66702;SDS011;60933;46.398;-63.798;2022-11-04T01:28:11;1.15;;;0.43;;
66702;SDS011;60933;46.398;-63.798;2022-11-04T01:30:37;1.50;;;0.52;;
66702;SDS011;60933;46.398;-63.798;2022-11-04T01:33:03;2.17;;;0.43;;
66702;SDS011;60933;46.398;-63.798;2022-11-04T01:35:30;1.45;;;0.47;;
66702;SDS011;60933;46.398;-63.798;2022-11-04T01:37:57;3.85;;;0.60;;
66702;SDS011;60933;46.398;-63.798;2022-11-04T01:40:23;1.70;;;0.50;;
66702;SDS011;60933;46.398;-63.798;2022-11-04T01:42:49;5.13;;;0.60;;
66702;SDS011;60933;46.398;-63.798;2022-11-04T01:45:16;1.75;;;0.52;;
66702;SDS011;60933;46.398;-63.798;2022-11-04T01:47:49;3.17;;;0.40;;
66702;SDS011;60933;46.398;-63.798;2022-11-04T01:50:28;2.25;;;0.40;;
66702;SDS011;60933;46.398;-63.798;2022-11-04T01:58:05;1.63;;;0.50;;
66702;SDS011;60933;46.398;-63.798;2022-11-04T02:00:40;0.85;;;0.30;;
66702;SDS011;60933;46.398;-63.798;2022-11-04T02:03:14;1.40;;;0.60;;
66702;SDS011;60933;46.398;-63.798;2022-11-04T02:05:48;1.27;;;0.52;;
66702;SDS011;60933;46.398;-63.798;2022-11-04T02:08:15;2.38;;;0.40;;
66702;SDS011;60933;46.398;-63.798;2022-11-04T02:10:49;2.50;;;0.65;;
66702;SDS011;60933;46.398;-63.798;2022-11-04T02:13:22;3.28;;;0.90;;
66702;SDS011;60933;46.398;-63.798;2022-11-04T02:16:09;1.85;;;0.73;;
66702;SDS011;60933;46.398;-63.798;2022-11-04T02:18:44;2.40;;;0.35;;
66702;SDS011;60933;46.398;-63.798;2022-11-04T02:21:38;1.88;;;0.60;;
66702;SDS011;60933;46.398;-63.798;2022-11-04T02:24:26;2.83;;;0.52;;
66702;SDS011;60933;46.398;-63.798;2022-11-04T02:29:49;2.20;;;0.40;;
66702;SDS011;60933;46.398;-63.798;2022-11-04T02:38:32;2.30;;;0.50;;
66702;SDS011;60933;46.398;-63.798;2022-11-04T02:41:24;2.40;;;0.63;;
66702;SDS011;60933;46.398;-63.798;2022-11-04T02:46:39;2.63;;;0.47;;
66702;SDS011;60933;46.398;-63.798;2022-11-04T02:49:21;3.22;;;0.73;;
66702;SDS011;60933;46.398;-63.798;2022-11-04T02:52:11;2.55;;;0.50;;
66702;SDS011;60933;46.398;-63.798;2022-11-04T02:57:48;6.68;;;1.02;;
66702;SDS011;60933;46.398;-63.798;2022-11-04T03:00:18;2.55;;;0.50;;
66702;SDS011;60933;46.398;-63.798;2022-11-04T03:02:47;2.60;;;0.70;;
66702;SDS011;60933;46.398;-63.798;2022-11-04T03:05:20;2.78;;;0.60;;
66702;SDS011;60933;46.398;-63.798;2022-11-04T03:07:52;3.20;;;0.52;;
66702;SDS011;60933;46.398;-63.798;2022-11-04T03:10:44;2.80;;;1.13;;
66702;SDS011;60933;46.398;-63.798;2022-11-04T03:13:23;6.55;;;0.57;;
66702;SDS011;60933;46.398;-63.798;2022-11-04T03:16:16;3.47;;;0.80;;
66702;SDS011;60933;46.398;-63.798;2022-11-04T03:18:50;2.85;;;0.65;;
66702;SDS011;60933;46.398;-63.798;2022-11-04T03:21:27;1.67;;;0.55;;
66702;SDS011;60933;46.398;-63.798;2022-11-04T03:26:29;2.25;;;0.77;;
66702;SDS011;60933;46.398;-63.798;2022-11-04T03:34:35;3.15;;;0.80;;
66702;SDS011;60933;46.398;-63.798;2022-11-04T03:37:02;4.47;;;0.80;;
66702;SDS011;60933;46.398;-63.798;2022-11-04T03:39:28;1.60;;;0.60;;
66702;SDS011;60933;46.398;-63.798;2022-11-04T03:41:56;2.08;;;0.90;;
66702;SDS011;60933;46.398;-63.798;2022-11-04T03:44:25;5.45;;;0.63;;
66702;SDS011;60933;46.398;-63.798;2022-11-04T03:46:53;4.63;;;0.85;;
66702;SDS011;60933;46.398;-63.798;2022-11-04T03:49:22;3.45;;;0.80;;
66702;SDS011;60933;46.398;-63.798;2022-11-04T03:51:49;3.65;;;0.65;;
66702;SDS011;60933;46.398;-63.798;2022-11-04T03:54:16;2.05;;;0.90;;
66702;SDS011;60933;46.398;-63.798;2022-11-04T03:57:17;2.88;;;0.85;;
66702;SDS011;60933;46.398;-63.798;2022-11-04T04:00:04;3.80;;;0.80;;
66702;SDS011;60933;46.398;-63.798;2022-11-04T04:07:54;3.78;;;0.57;;
66702;SDS011;60933;46.398;-63.798;2022-11-04T04:10:32;2.75;;;1.08;;
66702;SDS011;60933;46.398;-63.798;2022-11-04T04:13:33;4.18;;;0.82;;
66702;SDS011;60933;46.398;-63.798;2022-11-04T04:18:46;4.82;;;0.77;;
66702;SDS011;60933;46.398;-63.798;2022-11-04T04:21:15;2.72;;;1.02;;
66702;SDS011;60933;46.398;-63.798;2022-11-04T04:23:45;1.95;;;0.80;;
66702;SDS011;60933;46.398;-63.798;2022-11-04T04:26:32;3.50;;;0.80;;
66702;SDS011;60933;46.398;-63.798;2022-11-04T04:29:20;4.18;;;0.95;;
66702;SDS011;60933;46.398;-63.798;2022-11-04T04:31:48;3.92;;;1.08;;
66702;SDS011;60933;46.398;-63.798;2022-11-04T04:34:22;5.10;;;1.13;;
66702;SDS011;60933;46.398;-63.798;2022-11-04T04:39:27;4.15;;;1.02;;
66702;SDS011;60933;46.398;-63.798;2022-11-04T04:42:17;3.17;;;0.70;;
66702;SDS011;60933;46.398;-63.798;2022-11-04T04:45:03;3.90;;;0.77;;
66702;SDS011;60933;46.398;-63.798;2022-11-04T04:47:38;3.85;;;0.82;;
66702;SDS011;60933;46.398;-63.798;2022-11-04T04:50:09;4.18;;;0.88;;
66702;SDS011;60933;46.398;-63.798;2022-11-04T04:52:43;2.10;;;1.10;;
66702;SDS011;60933;46.398;-63.798;2022-11-04T04:55:11;3.95;;;0.80;;
66702;SDS011;60933;46.398;-63.798;2022-11-04T04:57:39;2.33;;;1.00;;
66702;SDS011;60933;46.398;-63.798;2022-11-04T05:00:06;2.72;;;0.82;;
66702;SDS011;60933;46.398;-63.798;2022-11-04T05:02:34;2.85;;;0.93;;
66702;SDS011;60933;46.398;-63.798;2022-11-04T05:05:00;3.45;;;1.00;;
66702;SDS011;60933;46.398;-63.798;2022-11-04T05:07:26;5.32;;;1.33;;
66702;SDS011;60933;46.398;-63.798;2022-11-04T05:09:52;1.92;;;0.90;;
66702;SDS011;60933;46.398;-63.798;2022-11-04T05:12:18;6.47;;;1.10;;
66702;SDS011;60933;46.398;-63.798;2022-11-04T05:14:44;4.93;;;1.30;;
66702;SDS011;60933;46.398;-63.798;2022-11-04T05:17:11;3.97;;;0.85;;
66702;SDS011;60933;46.398;-63.798;2022-11-04T05:19:37;3.88;;;1.02;;
66702;SDS011;60933;46.398;-63.798;2022-11-04T05:22:03;2.20;;;0.60;;
66702;SDS011;60933;46.398;-63.798;2022-11-04T05:24:29;5.18;;;0.80;;
66702;SDS011;60933;46.398;-63.798;2022-11-04T05:26:55;4.47;;;1.23;;
66702;SDS011;60933;46.398;-63.798;2022-11-04T05:29:21;2.50;;;0.75;;
66702;SDS011;60933;46.398;-63.798;2022-11-04T05:31:47;3.20;;;1.05;;
66702;SDS011;60933;46.398;-63.798;2022-11-04T05:34:13;2.88;;;1.00;;
66702;SDS011;60933;46.398;-63.798;2022-11-04T05:36:40;3.80;;;1.33;;
66702;SDS011;60933;46.398;-63.798;2022-11-04T05:39:06;2.40;;;1.10;;
66702;SDS011;60933;46.398;-63.798;2022-11-04T05:41:35;3.22;;;0.80;;
66702;SDS011;60933;46.398;-63.798;2022-11-04T05:44:02;6.43;;;1.40;;
66702;SDS011;60933;46.398;-63.798;2022-11-04T05:46:29;3.90;;;0.65;;
66702;SDS011;60933;46.398;-63.798;2022-11-04T05:48:56;4.43;;;1.15;;
66702;SDS011;60933;46.398;-63.798;2022-11-04T05:51:24;3.33;;;1.08;;
66702;SDS011;60933;46.398;-63.798;2022-11-04T05:53:52;5.32;;;1.02;;
66702;SDS011;60933;46.398;-63.798;2022-11-04T05:56:18;2.50;;;0.93;;
66702;SDS011;60933;46.398;-63.798;2022-11-04T05:58:44;4.13;;;0.90;;
66702;SDS011;60933;46.398;-63.798;2022-11-04T06:03:54;3.10;;;0.90;;
66702;SDS011;60933;46.398;-63.798;2022-11-04T06:06:22;3.70;;;0.90;;
66702;SDS011;60933;46.398;-63.798;2022-11-04T06:08:49;5.93;;;1.05;;
66702;SDS011;60933;46.398;-63.798;2022-11-04T06:11:16;5.85;;;0.93;;
66702;SDS011;60933;46.398;-63.798;2022-11-04T06:13:43;3.13;;;0.90;;
66702;SDS011;60933;46.398;-63.798;2022-11-04T06:16:09;4.90;;;0.88;;
66702;SDS011;60933;46.398;-63.798;2022-11-04T06:18:36;6.93;;;1.02;;
66702;SDS011;60933;46.398;-63.798;2022-11-04T06:23:38;3.47;;;1.00;;
66702;SDS011;60933;46.398;-63.798;2022-11-04T06:26:04;3.03;;;0.98;;
66702;SDS011;60933;46.398;-63.798;2022-11-04T06:28:31;4.47;;;0.90;;
66702;SDS011;60933;46.398;-63.798;2022-11-04T06:30:58;4.35;;;0.98;;
66702;SDS011;60933;46.398;-63.798;2022-11-04T06:33:25;3.17;;;1.17;;
66702;SDS011;60933;46.398;-63.798;2022-11-04T06:35:56;4.95;;;1.20;;
66702;SDS011;60933;46.398;-63.798;2022-11-04T06:38:24;4.13;;;0.98;;
66702;SDS011;60933;46.398;-63.798;2022-11-04T06:40:50;2.75;;;1.05;;
66702;SDS011;60933;46.398;-63.798;2022-11-04T06:43:17;4.55;;;1.15;;
66702;SDS011;60933;46.398;-63.798;2022-11-04T06:45:43;4.57;;;1.00;;
66702;SDS011;60933;46.398;-63.798;2022-11-04T06:48:09;6.03;;;1.48;;
66702;SDS011;60933;46.398;-63.798;2022-11-04T06:50:35;4.15;;;1.17;;
66702;SDS011;60933;46.398;-63.798;2022-11-04T06:53:01;4.53;;;0.98;;
66702;SDS011;60933;46.398;-63.798;2022-11-04T06:55:27;5.72;;;1.30;;
66702;SDS011;60933;46.398;-63.798;2022-11-04T06:57:53;4.47;;;1.30;;
66702;SDS011;60933;46.398;-63.798;2022-11-04T07:00:19;2.63;;;1.30;;
66702;SDS011;60933;46.398;-63.798;2022-11-04T07:02:45;3.25;;;0.93;;
66702;SDS011;60933;46.398;-63.798;2022-11-04T07:05:11;3.88;;;0.98;;
66702;SDS011;60933;46.398;-63.798;2022-11-04T07:07:38;2.72;;;1.33;;
66702;SDS011;60933;46.398;-63.798;2022-11-04T07:10:05;4.35;;;0.80;;
66702;SDS011;60933;46.398;-63.798;2022-11-04T07:12:31;2.88;;;1.13;;
66702;SDS011;60933;46.398;-63.798;2022-11-04T07:14:57;6.70;;;1.10;;
66702;SDS011;60933;46.398;-63.798;2022-11-04T07:17:23;7.18;;;1.23;;
66702;SDS011;60933;46.398;-63.798;2022-11-04T07:19:49;4.15;;;1.13;;
66702;SDS011;60933;46.398;-63.798;2022-11-04T07:22:15;4.05;;;0.73;;
66702;SDS011;60933;46.398;-63.798;2022-11-04T07:24:42;3.90;;;1.10;;
66702;SDS011;60933;46.398;-63.798;2022-11-04T07:27:08;5.38;;;1.27;;
66702;SDS011;60933;46.398;-63.798;2022-11-04T07:29:34;3.28;;;0.98;;
66702;SDS011;60933;46.398;-63.798;2022-11-04T07:32:01;2.70;;;1.00;;
66702;SDS011;60933;46.398;-63.798;2022-11-04T07:34:29;8.82;;;1.45;;
66702;SDS011;60933;46.398;-63.798;2022-11-04T07:36:55;6.57;;;1.23;;
66702;SDS011;60933;46.398;-63.798;2022-11-04T07:39:21;7.00;;;1.70;;
66702;SDS011;60933;46.398;-63.798;2022-11-04T07:41:47;7.30;;;1.10;;
66702;SDS011;60933;46.398;-63.798;2022-11-04T07:44:13;3.67;;;0.82;;
66702;SDS011;60933;46.398;-63.798;2022-11-04T07:46:39;7.60;;;1.15;;
66702;SDS011;60933;46.398;-63.798;2022-11-04T07:49:05;3.17;;;1.33;;
66702;SDS011;60933;46.398;-63.798;2022-11-04T07:51:32;4.97;;;1.08;;
66702;SDS011;60933;46.398;-63.798;2022-11-04T07:53:59;4.53;;;1.02;;
66702;SDS011;60933;46.398;-63.798;2022-11-04T07:56:25;3.65;;;1.60;;
66702;SDS011;60933;46.398;-63.798;2022-11-04T07:58:52;5.95;;;1.10;;
66702;SDS011;60933;46.398;-63.798;2022-11-04T08:01:19;4.90;;;1.00;;
66702;SDS011;60933;46.398;-63.798;2022-11-04T08:03:50;5.82;;;1.40;;
66702;SDS011;60933;46.398;-63.798;2022-11-04T08:06:17;3.10;;;1.17;;
66702;SDS011;60933;46.398;-63.798;2022-11-04T08:08:44;7.15;;;1.60;;
66702;SDS011;60933;46.398;-63.798;2022-11-04T08:11:16;2.78;;;1.17;;
66702;SDS011;60933;46.398;-63.798;2022-11-04T08:13:44;3.47;;;1.27;;
66702;SDS011;60933;46.398;-63.798;2022-11-04T08:16:13;6.00;;;1.25;;
66702;SDS011;60933;46.398;-63.798;2022-11-04T08:18:40;4.47;;;1.75;;
66702;SDS011;60933;46.398;-63.798;2022-11-04T08:21:07;6.43;;;1.23;;
66702;SDS011;60933;46.398;-63.798;2022-11-04T08:23:34;4.15;;;1.33;;
66702;SDS011;60933;46.398;-63.798;2022-11-04T08:26:01;4.80;;;1.50;;
66702;SDS011;60933;46.398;-63.798;2022-11-04T08:28:31;4.60;;;1.58;;
66702;SDS011;60933;46.398;-63.798;2022-11-04T08:30:59;3.53;;;1.38;;
66702;SDS011;60933;46.398;-63.798;2022-11-04T08:33:27;4.70;;;1.08;;
66702;SDS011;60933;46.398;-63.798;2022-11-04T08:35:57;3.90;;;1.17;;
66702;SDS011;60933;46.398;-63.798;2022-11-04T08:38:25;6.90;;;1.30;;
66702;SDS011;60933;46.398;-63.798;2022-11-04T08:40:55;4.75;;;1.45;;
66702;SDS011;60933;46.398;-63.798;2022-11-04T08:43:25;2.97;;;1.02;;
66702;SDS011;60933;46.398;-63.798;2022-11-04T08:45:52;4.78;;;1.35;;
66702;SDS011;60933;46.398;-63.798;2022-11-04T08:48:18;8.00;;;1.55;;
66702;SDS011;60933;46.398;-63.798;2022-11-04T08:50:51;4.15;;;1.40;;
66702;SDS011;60933;46.398;-63.798;2022-11-04T08:53:19;4.07;;;1.20;;
66702;SDS011;60933;46.398;-63.798;2022-11-04T08:55:45;6.30;;;1.45;;
66702;SDS011;60933;46.398;-63.798;2022-11-04T08:58:11;5.45;;;1.10;;
66702;SDS011;60933;46.398;-63.798;2022-11-04T09:00:38;8.35;;;1.52;;
66702;SDS011;60933;46.398;-63.798;2022-11-04T09:03:04;7.68;;;1.50;;
66702;SDS011;60933;46.398;-63.798;2022-11-04T09:05:32;4.30;;;1.15;;
66702;SDS011;60933;46.398;-63.798;2022-11-04T09:08:00;3.95;;;1.17;;
66702;SDS011;60933;46.398;-63.798;2022-11-04T09:10:27;5.25;;;1.58;;
66702;SDS011;60933;46.398;-63.798;2022-11-04T09:12:53;5.93;;;1.77;;
66702;SDS011;60933;46.398;-63.798;2022-11-04T09:15:19;4.05;;;1.50;;
66702;SDS011;60933;46.398;-63.798;2022-11-04T09:17:45;4.55;;;1.20;;
66702;SDS011;60933;46.398;-63.798;2022-11-04T09:20:11;5.93;;;1.50;;
66702;SDS011;60933;46.398;-63.798;2022-11-04T09:22:37;7.50;;;1.60;;
66702;SDS011;60933;46.398;-63.798;2022-11-04T09:25:03;5.38;;;1.55;;
66702;SDS011;60933;46.398;-63.798;2022-11-04T09:27:30;5.05;;;1.48;;
66702;SDS011;60933;46.398;-63.798;2022-11-04T09:29:56;3.30;;;1.33;;
66702;SDS011;60933;46.398;-63.798;2022-11-04T09:32:22;4.15;;;1.23;;
66702;SDS011;60933;46.398;-63.798;2022-11-04T09:34:48;5.45;;;1.30;;
66702;SDS011;60933;46.398;-63.798;2022-11-04T09:37:14;6.07;;;1.55;;
66702;SDS011;60933;46.398;-63.798;2022-11-04T09:39:40;3.88;;;1.30;;
66702;SDS011;60933;46.398;-63.798;2022-11-04T09:45:12;8.70;;;1.60;;
66702;SDS011;60933;46.398;-63.798;2022-11-04T09:47:43;6.10;;;1.50;;
66702;SDS011;60933;46.398;-63.798;2022-11-04T09:50:18;4.65;;;1.38;;
66702;SDS011;60933;46.398;-63.798;2022-11-04T09:52:59;3.97;;;1.42;;
66702;SDS011;60933;46.398;-63.798;2022-11-04T09:55:44;6.88;;;2.10;;
66702;SDS011;60933;46.398;-63.798;2022-11-04T09:58:14;6.15;;;1.15;;
66702;SDS011;60933;46.398;-63.798;2022-11-04T10:00:41;5.40;;;1.48;;
66702;SDS011;60933;46.398;-63.798;2022-11-04T10:06:19;7.45;;;1.50;;
66702;SDS011;60933;46.398;-63.798;2022-11-04T10:09:07;7.32;;;2.50;;
66702;SDS011;60933;46.398;-63.798;2022-11-04T10:12:12;2.80;;;1.23;;
66702;SDS011;60933;46.398;-63.798;2022-11-04T10:22:55;3.53;;;1.23;;
66702;SDS011;60933;46.398;-63.798;2022-11-04T10:25:52;3.42;;;1.67;;
66702;SDS011;60933;46.398;-63.798;2022-11-04T10:28:41;3.95;;;1.38;;
66702;SDS011;60933;46.398;-63.798;2022-11-04T10:31:14;5.35;;;1.38;;
66702;SDS011;60933;46.398;-63.798;2022-11-04T10:33:56;2.92;;;1.48;;
66702;SDS011;60933;46.398;-63.798;2022-11-04T10:36:28;6.45;;;1.63;;
66702;SDS011;60933;46.398;-63.798;2022-11-04T10:38:56;4.15;;;1.77;;
66702;SDS011;60933;46.398;-63.798;2022-11-04T10:43:56;4.07;;;1.80;;
66702;SDS011;60933;46.398;-63.798;2022-11-04T10:52:04;5.32;;;1.73;;
66702;SDS011;60933;46.398;-63.798;2022-11-04T10:54:35;3.33;;;1.45;;
66702;SDS011;60933;46.398;-63.798;2022-11-04T10:57:20;4.15;;;1.63;;
66702;SDS011;60933;46.398;-63.798;2022-11-04T11:05:20;6.50;;;2.00;;
66702;SDS011;60933;46.398;-63.798;2022-11-04T11:07:50;7.22;;;2.17;;
66702;SDS011;60933;46.398;-63.798;2022-11-04T11:10:28;2.33;;;1.45;;
66702;SDS011;60933;46.398;-63.798;2022-11-04T11:12:57;6.68;;;2.00;;
66702;SDS011;60933;46.398;-63.798;2022-11-04T11:15:32;2.90;;;1.50;;
66702;SDS011;60933;46.398;-63.798;2022-11-04T11:23:02;5.47;;;1.52;;
66702;SDS011;60933;46.398;-63.798;2022-11-04T11:30:31;2.50;;;1.27;;
66702;SDS011;60933;46.398;-63.798;2022-11-04T11:33:05;9.88;;;1.63;;
66702;SDS011;60933;46.398;-63.798;2022-11-04T11:35:45;3.88;;;2.05;;
66702;SDS011;60933;46.398;-63.798;2022-11-04T11:38:21;6.90;;;1.60;;
66702;SDS011;60933;46.398;-63.798;2022-11-04T11:40:49;6.38;;;1.85;;
66702;SDS011;60933;46.398;-63.798;2022-11-04T11:43:25;3.58;;;1.85;;
66702;SDS011;60933;46.398;-63.798;2022-11-04T11:45:55;5.03;;;1.60;;
66702;SDS011;60933;46.398;-63.798;2022-11-04T11:48:27;5.32;;;1.50;;
66702;SDS011;60933;46.398;-63.798;2022-11-04T11:51:24;6.25;;;1.90;;
66702;SDS011;60933;46.398;-63.798;2022-11-04T11:56:52;4.30;;;2.22;;
66702;SDS011;60933;46.398;-63.798;2022-11-04T12:04:28;5.10;;;1.83;;
66702;SDS011;60933;46.398;-63.798;2022-11-04T12:07:08;4.45;;;1.75;;
66702;SDS011;60933;46.398;-63.798;2022-11-04T12:21:13;5.53;;;1.42;;
66702;SDS011;60933;46.398;-63.798;2022-11-04T12:27:08;7.38;;;2.00;;
66702;SDS011;60933;46.398;-63.798;2022-11-04T12:29:21;4.20;;;2.05;;
66702;SDS011;60933;46.398;-63.798;2022-11-04T12:40:22;3.92;;;1.88;;
66702;SDS011;60933;46.398;-63.798;2022-11-04T12:45:58;6.75;;;1.90;;
66702;SDS011;60933;46.398;-63.798;2022-11-04T12:48:50;5.03;;;1.88;;
66702;SDS011;60933;46.398;-63.798;2022-11-04T12:51:31;5.05;;;2.03;;
66702;SDS011;60933;46.398;-63.798;2022-11-04T12:54:52;5.20;;;1.90;;
66702;SDS011;60933;46.398;-63.798;2022-11-04T12:57:35;4.72;;;2.63;;
66702;SDS011;60933;46.398;-63.798;2022-11-04T13:02:42;5.32;;;2.08;;
66702;SDS011;60933;46.398;-63.798;2022-11-04T13:05:32;5.65;;;1.90;;
66702;SDS011;60933;46.398;-63.798;2022-11-04T13:16:26;4.13;;;2.10;;
66702;SDS011;60933;46.398;-63.798;2022-11-04T13:18:54;4.22;;;1.95;;
66702;SDS011;60933;46.398;-63.798;2022-11-04T13:21:23;5.07;;;1.92;;
66702;SDS011;60933;46.398;-63.798;2022-11-04T13:23:57;4.90;;;1.90;;
66702;SDS011;60933;46.398;-63.798;2022-11-04T13:26:28;3.42;;;1.95;;
66702;SDS011;60933;46.398;-63.798;2022-11-04T13:29:00;3.33;;;1.55;;
66702;SDS011;60933;46.398;-63.798;2022-11-04T13:34:27;4.53;;;2.45;;
66702;SDS011;60933;46.398;-63.798;2022-11-04T13:39:56;4.43;;;1.90;;
66702;SDS011;60933;46.398;-63.798;2022-11-04T13:42:47;4.32;;;1.65;;
66702;SDS011;60933;46.398;-63.798;2022-11-04T13:45:59;5.22;;;1.92;;
66702;SDS011;60933;46.398;-63.798;2022-11-04T13:48:27;3.80;;;1.73;;
66702;SDS011;60933;46.398;-63.798;2022-11-04T13:51:06;5.05;;;2.45;;
66702;SDS011;60933;46.398;-63.798;2022-11-04T13:56:27;5.80;;;1.95;;
66702;SDS011;60933;46.398;-63.798;2022-11-04T13:59:06;4.15;;;2.50;;
66702;SDS011;60933;46.398;-63.798;2022-11-04T14:02:08;5.28;;;2.10;;
66702;SDS011;60933;46.398;-63.798;2022-11-04T14:04:36;4.32;;;2.20;;
66702;SDS011;60933;46.398;-63.798;2022-11-04T14:07:04;5.50;;;1.95;;
66702;SDS011;60933;46.398;-63.798;2022-11-04T14:09:36;5.18;;;2.03;;
66702;SDS011;60933;46.398;-63.798;2022-11-04T14:12:17;3.33;;;1.80;;
66702;SDS011;60933;46.398;-63.798;2022-11-04T14:25:19;4.22;;;1.92;;
66702;SDS011;60933;46.398;-63.798;2022-11-04T14:27:47;3.83;;;2.25;;
66702;SDS011;60933;46.398;-63.798;2022-11-04T14:33:24;5.63;;;1.85;;
66702;SDS011;60933;46.398;-63.798;2022-11-04T14:35:52;5.00;;;2.47;;
66702;SDS011;60933;46.398;-63.798;2022-11-04T14:38:29;3.85;;;2.00;;
66702;SDS011;60933;46.398;-63.798;2022-11-04T14:41:48;5.03;;;2.28;;
66702;SDS011;60933;46.398;-63.798;2022-11-04T14:44:36;10.65;;;3.70;;
66702;SDS011;60933;46.398;-63.798;2022-11-04T14:46:55;3.13;;;2.03;;
66702;SDS011;60933;46.398;-63.798;2022-11-04T14:52:00;5.13;;;2.05;;
66702;SDS011;60933;46.398;-63.798;2022-11-04T14:54:28;3.75;;;2.53;;
66702;SDS011;60933;46.398;-63.798;2022-11-04T14:59:45;4.80;;;2.25;;
66702;SDS011;60933;46.398;-63.798;2022-11-04T15:02:13;5.90;;;2.42;;
66702;SDS011;60933;46.398;-63.798;2022-11-04T15:04:57;4.25;;;2.30;;
66702;SDS011;60933;46.398;-63.798;2022-11-04T15:07:37;4.93;;;2.30;;
66702;SDS011;60933;46.398;-63.798;2022-11-04T15:10:17;4.13;;;1.92;;
66702;SDS011;60933;46.398;-63.798;2022-11-04T15:12:44;5.00;;;2.22;;
66702;SDS011;60933;46.398;-63.798;2022-11-04T15:15:24;4.22;;;2.33;;
66702;SDS011;60933;46.398;-63.798;2022-11-04T15:17:54;8.93;;;2.63;;
66702;SDS011;60933;46.398;-63.798;2022-11-04T15:20:24;4.88;;;2.80;;
66702;SDS011;60933;46.398;-63.798;2022-11-04T15:22:54;4.60;;;2.60;;
66702;SDS011;60933;46.398;-63.798;2022-11-04T15:25:24;5.85;;;2.40;;
66702;SDS011;60933;46.398;-63.798;2022-11-04T15:27:50;3.45;;;2.10;;
66702;SDS011;60933;46.398;-63.798;2022-11-04T15:30:22;3.55;;;2.35;;
66702;SDS011;60933;46.398;-63.798;2022-11-04T15:32:53;5.80;;;2.40;;
66702;SDS011;60933;46.398;-63.798;2022-11-04T15:35:20;6.90;;;3.00;;
66702;SDS011;60933;46.398;-63.798;2022-11-04T15:37:49;6.68;;;2.85;;
66702;SDS011;60933;46.398;-63.798;2022-11-04T15:40:17;5.13;;;2.65;;
66702;SDS011;60933;46.398;-63.798;2022-11-04T15:42:47;5.82;;;2.58;;
66702;SDS011;60933;46.398;-63.798;2022-11-04T15:47:47;6.45;;;2.58;;
66702;SDS011;60933;46.398;-63.798;2022-11-04T15:50:15;5.90;;;2.72;;
66702;SDS011;60933;46.398;-63.798;2022-11-04T15:52:49;6.18;;;2.80;;
66702;SDS011;60933;46.398;-63.798;2022-11-04T15:55:22;5.43;;;2.90;;
66702;SDS011;60933;46.398;-63.798;2022-11-04T15:57:50;7.32;;;3.17;;
66702;SDS011;60933;46.398;-63.798;2022-11-04T16:00:24;8.75;;;3.53;;
66702;SDS011;60933;46.398;-63.798;2022-11-04T16:02:55;6.82;;;2.65;;
66702;SDS011;60933;46.398;-63.798;2022-11-04T16:07:52;7.22;;;3.10;;
66702;SDS011;60933;46.398;-63.798;2022-11-04T16:10:25;6.93;;;3.40;;
66702;SDS011;60933;46.398;-63.798;2022-11-04T16:13:00;4.50;;;2.70;;
66702;SDS011;60933;46.398;-63.798;2022-11-04T16:17:58;5.22;;;2.75;;
66702;SDS011;60933;46.398;-63.798;2022-11-04T16:20:24;5.07;;;2.30;;
66702;SDS011;60933;46.398;-63.798;2022-11-04T16:22:54;4.47;;;2.45;;
66702;SDS011;60933;46.398;-63.798;2022-11-04T16:25:31;4.65;;;2.88;;
66702;SDS011;60933;46.398;-63.798;2022-11-04T16:27:59;3.33;;;2.33;;
66702;SDS011;60933;46.398;-63.798;2022-11-04T16:30:26;4.53;;;2.85;;
66702;SDS011;60933;46.398;-63.798;2022-11-04T16:32:55;3.90;;;2.50;;
66702;SDS011;60933;46.398;-63.798;2022-11-04T16:35:34;4.72;;;3.05;;
66702;SDS011;60933;46.398;-63.798;2022-11-04T16:38:06;5.45;;;2.20;;
66702;SDS011;60933;46.398;-63.798;2022-11-04T16:40:32;4.95;;;2.72;;
66702;SDS011;60933;46.398;-63.798;2022-11-04T16:42:59;5.97;;;2.83;;
66702;SDS011;60933;46.398;-63.798;2022-11-04T16:45:26;7.32;;;2.83;;
66702;SDS011;60933;46.398;-63.798;2022-11-04T16:47:57;4.97;;;2.60;;
66702;SDS011;60933;46.398;-63.798;2022-11-04T16:50:27;5.05;;;2.53;;
66702;SDS011;60933;46.398;-63.798;2022-11-04T16:52:54;5.22;;;2.72;;
66702;SDS011;60933;46.398;-63.798;2022-11-04T16:55:20;4.63;;;2.70;;
66702;SDS011;60933;46.398;-63.798;2022-11-04T16:57:56;5.82;;;3.00;;
66702;SDS011;60933;46.398;-63.798;2022-11-04T17:00:25;7.28;;;3.13;;
66702;SDS011;60933;46.398;-63.798;2022-11-04T17:02:52;4.80;;;2.72;;
66702;SDS011;60933;46.398;-63.798;2022-11-04T17:05:18;4.10;;;2.72;;
66702;SDS011;60933;46.398;-63.798;2022-11-04T17:07:45;8.60;;;2.88;;
66702;SDS011;60933;46.398;-63.798;2022-11-04T17:10:16;6.68;;;2.83;;
66702;SDS011;60933;46.398;-63.798;2022-11-04T17:12:50;5.32;;;2.72;;
66702;SDS011;60933;46.398;-63.798;2022-11-04T17:15:17;4.50;;;2.50;;
66702;SDS011;60933;46.398;-63.798;2022-11-04T17:17:49;6.00;;;3.17;;
66702;SDS011;60933;46.398;-63.798;2022-11-04T17:20:17;5.57;;;3.38;;
66702;SDS011;60933;46.398;-63.798;2022-11-04T17:22:43;3.72;;;2.22;;
66702;SDS011;60933;46.398;-63.798;2022-11-04T17:25:15;4.68;;;2.53;;
66702;SDS011;60933;46.398;-63.798;2022-11-04T17:27:43;4.85;;;2.58;;
66702;SDS011;60933;46.398;-63.798;2022-11-04T17:30:10;5.63;;;3.17;;
66702;SDS011;60933;46.398;-63.798;2022-11-04T17:32:38;4.38;;;2.80;;